KGAF

Hutson Field Airport

Grafton, North Dakota, USA
METAR KGAF 181435Z AUTO 16008G13KT 9SM CLR 20/17 A2999 RMK AO2 PWINO
Observed Flight Rules
Aug-18 @ 14:35 UTC (17 minutes ago) Visual Flight Rules
Wind Visibility Clouds
160° at 8 knots
 Gusting to 13 knots
9 miles
  • Clear skies
Temperatures Readings
Current 20°C / 68°F
Dewpoint 17°C / 63°F
Humidity 83%
Altimeter 29.99" Hg
Pressure 1016 hPa
Elevation 252
METAR KGAF 181435Z AUTO 16008G13KT 9SM CLR 20/17 A2999 RMK AO2 PWINO
Observed Flight Rules
Aug-18 @ 14:35 UTC
(17 minutes ago)
VFR
Wind Visibility
160° at 8 knots
 Gusting to 13 knots
9 miles
Clouds
  • Clear skies
Temperature Dewpoint
20°C / 68°F 17°C / 63°F
Humidity Altimeter Pressure
83% 29.99" Hg 1016 hPa